Time;durP1;ratioP1;P1;durP2;ratioP2;P2;SDS_P1;SDS_P2;PMS_P1;PMS_P2;Temp;Humidity;BMP_temperature;BMP_pressure;BME280_temperature;BME280_humidity;BME280_pressure;Samples;Min_cycle;Max_cycle;Signal;HPM_P1;HPM_P2
2022/05/16 00:01:43;;;;;;;12.27;6.07;;;;;;;14.95;100.00;164473.56;4991235;28;20044;-58
2022/05/16 00:04:09;;;;;;;14.10;4.93;;;;;;;14.86;100.00;164451.91;4982202;28;20046;-58
2022/05/16 00:06:34;;;;;;;11.65;4.15;;;;;;;14.80;100.00;164435.69;4971717;28;20045;-58
2022/05/16 00:08:59;;;;;;;15.30;5.78;;;;;;;14.74;100.00;164420.78;4973396;28;20082;-58
2022/05/16 00:11:25;;;;;;;15.32;5.05;;;;;;;14.71;100.00;164411.31;4971957;28;20050;-58
2022/05/16 00:13:50;;;;;;;11.23;4.88;;;;;;;14.67;100.00;164400.50;4992362;28;20034;-58
2022/05/16 00:16:16;;;;;;;10.25;4.03;;;;;;;14.64;100.00;164392.31;4991135;28;20038;-59
2022/05/16 00:18:41;;;;;;;8.85;4.43;;;;;;;14.60;100.00;164384.25;4988013;28;20030;-58
2022/05/16 00:21:07;;;;;;;13.18;5.05;;;;;;;14.55;100.00;164370.72;4971765;28;20042;-58
2022/05/16 00:23:32;;;;;;;10.77;5.18;;;;;;;14.54;100.00;164368.00;4972638;28;20030;-58
2022/05/16 00:25:58;;;;;;;18.77;5.10;;;;;;;14.55;100.00;164369.34;4971327;28;20041;-58
2022/05/16 00:28:23;;;;;;;16.80;6.68;;;;;;;14.57;100.00;164376.09;4972330;28;20019;-58
2022/05/16 00:30:48;;;;;;;11.40;4.68;;;;;;;14.58;100.00;164378.81;4971440;28;20616;-58
2022/05/16 00:33:14;;;;;;;14.60;5.93;;;;;;;14.56;100.00;164372.06;4972559;28;20046;-58
2022/05/16 00:35:40;;;;;;;13.48;4.68;;;;;;;14.55;100.00;164370.72;4971243;28;20047;-58
2022/05/16 00:38:05;;;;;;;12.10;4.63;;;;;;;14.56;100.00;164372.06;4972792;28;20027;-57
2022/05/16 00:40:31;;;;;;;13.20;4.00;;;;;;;14.54;100.00;164366.63;4970878;28;20391;-57
2022/05/16 00:43:02;;;;;;;21.50;6.57;;;;;;;14.52;100.00;164362.59;4972629;28;20031;-57
2022/05/16 00:45:27;;;;;;;15.45;4.78;;;;;;;14.51;100.00;164359.88;4971336;28;20026;-57
2022/05/16 00:47:53;;;;;;;18.05;6.63;;;;;;;14.49;100.00;164354.44;4973188;28;20026;-57
2022/05/16 00:50:18;;;;;;;19.85;5.68;;;;;;;14.49;100.00;164354.44;4990629;28;20393;-57
2022/05/16 00:52:48;;;;;;;15.30;5.35;;;;;;;14.49;100.00;164354.44;4991780;28;20041;-57
2022/05/16 00:55:36;;;;;;;14.95;6.60;;;;;;;14.44;100.00;164342.25;4991707;28;20050;-57
2022/05/16 00:58:07;;;;;;;;;;;;;;;14.42;100.00;164336.88;4977433;28;20045;-57
2022/05/16 01:00:38;;;;;;;17.05;5.05;;;;;;;14.40;100.00;164330.13;4970843;28;19914;-58
2022/05/16 01:05:59;;;;;;;10.38;4.28;;;;;;;14.30;100.00;164303.06;4971352;28;20054;-57
2022/05/16 01:08:26;;;;;;;18.40;5.72;;;;;;;14.12;100.00;164257.03;4972410;28;20035;-57
2022/05/16 01:10:54;;;;;;;11.13;5.38;;;;;;;14.23;100.00;164285.44;4970467;28;20038;-58
2022/05/16 01:13:24;;;;;;;19.30;4.97;;;;;;;14.18;100.00;164271.94;4972553;28;20026;-57
2022/05/16 01:15:49;;;;;;;18.95;4.45;;;;;;;14.10;100.00;164251.66;4970571;28;20519;-57
2022/05/16 01:18:18;;;;;;;18.95;4.53;;;;;;;14.10;100.00;164251.66;4978393;28;20027;-58
2022/05/16 01:21:06;;;;;;;13.57;4.47;;;;;;;14.05;100.00;164238.09;4990018;28;20062;-57
2022/05/16 01:23:35;;;;;;;13.27;5.13;;;;;;;13.99;100.00;164221.88;4991028;28;20030;-58
2022/05/16 01:26:04;;;;;;;;;;;;;;;13.96;100.00;164216.47;4990888;28;20537;-57
2022/05/16 01:28:29;;;;;;;12.52;4.93;;;;;;;13.95;100.00;164213.78;4991535;28;19914;-58
2022/05/16 01:30:54;;;;;;;9.25;4.90;;;;;;;13.91;100.00;164202.94;4989595;28;20486;-58
2022/05/16 01:33:22;;;;;;;16.80;5.50;;;;;;;13.90;100.00;164200.25;4990037;28;20037;-57
2022/05/16 01:35:48;;;;;;;13.67;4.43;;;;;;;13.88;100.00;164194.84;4991255;28;20030;-57
2022/05/16 01:38:26;;;;;;;15.90;6.22;;;;;;;13.85;100.00;164186.72;4990766;28;20050;-57
2022/05/16 01:41:07;;;;;;;16.98;5.85;;;;;;;13.83;100.00;164181.31;4995465;28;20109;-58
2022/05/16 01:43:36;;;;;;;6.47;4.72;;;;;;;13.77;100.00;164166.47;4993874;28;20045;-58
2022/05/16 01:46:02;;;;;;;18.23;5.43;;;;;;;13.70;100.00;164147.47;4993631;28;20022;-58
2022/05/16 01:48:30;;;;;;;18.52;5.60;;;;;;;13.70;100.00;164146.16;4987464;28;20109;-58
2022/05/16 01:51:02;;;;;;;19.63;6.30;;;;;;;13.70;100.00;164146.16;4974384;28;20113;-58
2022/05/16 01:53:28;;;;;;;10.18;3.72;;;;;;;13.74;100.00;164158.31;4975569;28;20513;-58
2022/05/16 01:55:54;;;;;;;15.35;5.72;;;;;;;13.72;100.00;164151.56;4974245;28;20386;-58
2022/05/16 01:58:20;;;;;;;14.38;7.18;;;;;;;13.74;100.00;164156.94;4974356;28;20046;-57
2022/05/16 02:00:45;;;;;;;12.02;6.72;;;;;;;13.72;100.00;164152.91;4975183;28;20567;-58
2022/05/16 02:03:11;;;;;;;15.07;5.93;;;;;;;13.67;100.00;164138.00;4974158;28;20085;-58
2022/05/16 02:05:37;;;;;;;10.70;4.97;;;;;;;13.67;100.00;164138.00;4975278;28;20055;-57
2022/05/16 02:08:03;;;;;;;10.63;4.68;;;;;;;13.67;100.00;164138.00;4973850;28;20053;-58
2022/05/16 02:10:29;;;;;;;10.98;5.47;;;;;;;13.66;100.00;164135.34;4975650;28;20019;-58
2022/05/16 02:12:59;;;;;;;10.82;4.90;;;;;;;13.62;100.00;164125.88;4973869;28;20442;-57
2022/05/16 02:15:27;;;;;;;13.63;5.10;;;;;;;13.57;100.00;164113.72;4975065;28;20471;-58
2022/05/16 02:17:53;;;;;;;9.90;5.03;;;;;;;13.53;100.00;164102.88;4979170;28;20524;-58
2022/05/16 02:20:19;;;;;;;13.50;5.30;;;;;;;13.46;100.00;164083.94;4989320;28;20063;-58
2022/05/16 02:25:32;;;;;;;16.63;4.72;;;;;;;13.41;100.00;164070.44;4975272;28;20050;-57
2022/05/16 02:27:57;;;;;;;14.95;5.45;;;;;;;13.36;100.00;164058.19;4973732;28;20047;-58
2022/05/16 02:30:23;;;;;;;13.20;5.43;;;;;;;13.29;100.00;164040.59;4973488;28;20042;-58
2022/05/16 02:32:49;;;;;;;17.40;6.80;;;;;;;13.24;100.00;164027.09;4974986;28;20023;-58
2022/05/16 02:35:15;;;;;;;15.68;5.20;;;;;;;13.20;100.00;164016.31;4975312;28;20038;-58
2022/05/16 02:37:40;;;;;;;11.80;5.07;;;;;;;13.16;100.00;164005.47;4972976;28;20098;-58
2022/05/16 02:40:06;;;;;;;17.33;6.07;;;;;;;13.12;100.00;163996.00;4975104;28;20023;-58
2022/05/16 02:42:32;;;;;;;11.32;5.60;;;;;;;13.11;100.00;163991.97;4973208;28;20043;-58
2022/05/16 02:44:57;;;;;;;15.02;6.15;;;;;;;13.09;100.00;163986.53;4974433;28;20029;-58
2022/05/16 02:47:23;;;;;;;14.43;5.57;;;;;;;13.07;100.00;163981.16;4973349;28;20097;-57
2022/05/16 02:49:50;;;;;;;16.58;6.00;;;;;;;13.00;100.00;163963.56;4977075;28;20514;-57
2022/05/16 02:52:15;;;;;;;14.05;5.65;;;;;;;12.96;100.00;163952.72;4992693;28;20034;-57
2022/05/16 02:54:41;;;;;;;12.50;6.32;;;;;;;12.94;100.00;163948.69;4993993;28;20034;-57
2022/05/16 02:57:07;;;;;;;16.88;6.97;;;;;;;12.91;100.00;163940.63;4992514;28;20093;-58
2022/05/16 02:59:33;;;;;;;10.98;5.60;;;;;;;12.88;100.00;163932.47;4993978;28;20105;-58
2022/05/16 03:01:59;;;;;;;13.45;6.38;;;;;;;12.94;100.00;163948.69;4992044;28;20042;-57
2022/05/16 03:04:25;;;;;;;13.07;6.60;;;;;;;12.96;100.00;163954.13;4993532;28;20058;-58
2022/05/16 03:06:50;;;;;;;14.38;5.18;;;;;;;12.97;100.00;163955.44;4992299;28;20125;-57
2022/05/16 03:09:17;;;;;;;17.77;7.63;;;;;;;12.95;100.00;163951.41;4993572;28;20022;-57
2022/05/16 03:11:44;;;;;;;9.38;5.07;;;;;;;12.96;100.00;163952.72;4992103;28;20100;-58
2022/05/16 03:14:10;;;;;;;13.85;5.80;;;;;;;12.93;100.00;163944.66;4993871;28;20030;-57
2022/05/16 03:16:36;;;;;;;12.18;5.75;;;;;;;12.90;100.00;163937.91;4991454;28;20461;-58
2022/05/16 03:19:01;;;;;;;13.88;6.03;;;;;;;12.89;100.00;163935.19;4992053;28;20026;-58
2022/05/16 03:21:27;;;;;;;17.70;6.28;;;;;;;12.87;100.00;163928.44;4972843;28;20039;-57
2022/05/16 03:23:52;;;;;;;13.88;5.60;;;;;;;12.86;100.00;163927.06;4973530;28;20475;-57
2022/05/16 03:26:18;;;;;;;18.35;5.75;;;;;;;12.87;100.00;163928.44;4972487;28;20039;-57
2022/05/16 03:28:43;;;;;;;14.23;6.55;;;;;;;12.85;100.00;163924.34;4973962;28;20022;-57
2022/05/16 03:31:09;;;;;;;17.27;5.95;;;;;;;12.85;100.00;163924.34;4972352;28;20395;-57
2022/05/16 03:33:34;;;;;;;16.23;5.93;;;;;;;12.86;100.00;163927.06;4986606;28;20095;-58
2022/05/16 03:36:00;;;;;;;14.10;5.90;;;;;;;12.86;100.00;163927.06;4991944;28;20042;-58
2022/05/16 03:41:12;;;;;;;18.38;6.18;;;;;;;12.88;100.00;163931.16;4992166;28;20510;-56
2022/05/16 03:43:39;;;;;;;10.20;5.65;;;;;;;12.92;100.00;163941.94;4992834;28;20493;-58
2022/05/16 03:46:06;;;;;;;13.60;6.07;;;;;;;12.91;100.00;163940.63;4991307;28;20053;-57
2022/05/16 03:48:32;;;;;;;16.13;6.28;;;;;;;12.91;100.00;163940.63;4992613;28;20029;-58
2022/05/16 03:50:58;;;;;;;12.90;5.97;;;;;;;12.90;100.00;163937.91;4991767;28;20536;-57
2022/05/16 03:53:23;;;;;;;17.35;7.43;;;;;;;12.90;100.00;163937.91;4992788;28;20109;-57
2022/05/16 03:55:48;;;;;;;11.57;5.60;;;;;;;12.90;100.00;163937.91;4991402;28;20038;-57
2022/05/16 03:58:14;;;;;;;8.50;5.00;;;;;;;12.90;100.00;163936.53;4991709;28;20022;-58
2022/05/16 04:00:40;;;;;;;16.27;6.85;;;;;;;12.90;100.00;163936.53;4990725;28;20038;-57
2022/05/16 04:03:05;;;;;;;13.85;4.85;;;;;;;12.94;100.00;163948.69;4991234;28;20026;-57
2022/05/16 04:05:31;;;;;;;17.88;6.25;;;;;;;12.94;100.00;163948.69;4991029;28;20093;-59
2022/05/16 04:07:56;;;;;;;20.63;6.07;;;;;;;12.94;100.00;163948.69;4978983;28;20026;-57
2022/05/16 04:10:22;;;;;;;11.68;5.38;;;;;;;12.96;100.00;163954.13;4971880;28;20474;-58
2022/05/16 04:12:48;;;;;;;11.73;5.60;;;;;;;12.99;100.00;163962.19;4973380;28;20073;-55
2022/05/16 04:15:13;;;;;;;20.25;7.18;;;;;;;13.02;100.00;163970.31;4988984;28;20084;-54
2022/05/16 04:17:39;;;;;;;16.48;5.55;;;;;;;13.00;100.00;163963.56;4983869;28;20033;-54
2022/05/16 04:20:06;;;;;;;18.85;6.20;;;;;;;13.04;100.00;163973.03;4991873;28;20030;-54
2022/05/16 04:22:32;;;;;;;14.65;6.70;;;;;;;13.07;100.00;163981.16;4979566;28;20073;-54
2022/05/16 04:24:57;;;;;;;19.05;5.95;;;;;;;13.11;100.00;163991.97;4992476;28;20025;-54
2022/05/16 04:27:23;;;;;;;22.75;6.28;;;;;;;13.16;100.00;164005.47;4991079;28;20077;-54
2022/05/16 04:29:48;;;;;;;15.10;5.82;;;;;;;13.23;100.00;164023.06;4991377;28;20022;-55
2022/05/16 04:32:13;;;;;;;11.88;5.97;;;;;;;13.29;100.00;164039.28;4990899;28;20074;-54
2022/05/16 04:34:39;;;;;;;11.88;6.78;;;;;;;13.39;100.00;164065.00;4992064;28;20434;-55
2022/05/16 04:37:04;;;;;;;17.88;6.25;;;;;;;13.39;100.00;164066.38;4984839;28;20035;-55
2022/05/16 04:39:30;;;;;;;10.55;5.47;;;;;;;13.67;100.00;164138.00;4983461;28;20493;-54
2022/05/16 04:44:39;;;;;;;15.70;6.05;;;;;;;13.84;100.00;164184.00;4991736;28;20093;-54
2022/05/16 04:47:06;;;;;;;17.38;6.38;;;;;;;13.91;100.00;164201.63;4990676;28;20034;-54
2022/05/16 04:49:32;;;;;;;13.88;5.45;;;;;;;13.96;100.00;164215.13;4991924;28;20034;-54
2022/05/16 04:51:58;;;;;;;9.43;4.75;;;;;;;13.96;100.00;164215.13;4990310;28;20499;-54
2022/05/16 04:54:24;;;;;;;10.10;5.82;;;;;;;13.98;100.00;164219.16;4991939;28;20034;-54
2022/05/16 04:56:51;;;;;;;14.07;5.80;;;;;;;13.98;100.00;164219.16;4990205;28;20046;-54
2022/05/16 04:59:17;;;;;;;13.23;4.82;;;;;;;13.96;100.00;164216.47;4991172;28;20485;-54
2022/05/16 05:01:42;;;;;;;14.35;6.55;;;;;;;13.96;100.00;164215.13;4989978;28;20468;-54
2022/05/16 05:04:08;;;;;;;16.98;6.38;;;;;;;13.90;100.00;164200.25;4989705;28;20053;-54
2022/05/16 05:06:33;;;;;;;10.93;5.38;;;;;;;13.88;100.00;164193.47;4988825;28;20405;-54
2022/05/16 05:08:59;;;;;;;13.25;4.88;;;;;;;13.84;100.00;164182.69;4991843;28;20042;-54
2022/05/16 05:16:52;;;;;;;14.38;5.80;;;;;;;13.82;100.00;164177.25;4989940;28;20109;-54
2022/05/16 05:19:17;;;;;;;16.50;5.80;;;;;;;13.80;100.00;164173.22;4991898;28;20458;-54
2022/05/16 05:21:42;;;;;;;11.68;6.07;;;;;;;13.86;100.00;164189.44;4989844;28;20061;-54
2022/05/16 05:24:08;;;;;;;11.45;6.20;;;;;;;13.88;100.00;164194.84;4991598;28;20023;-54
2022/05/16 05:26:34;;;;;;;24.55;7.00;;;;;;;13.96;100.00;164215.13;4989948;28;20049;-54
2022/05/16 05:28:59;;;;;;;9.55;6.18;;;;;;;13.79;100.00;164170.50;4991376;28;20073;-54
2022/05/16 05:31:25;;;;;;;17.67;6.53;;;;;;;14.15;100.00;164265.19;4990219;28;20042;-54
2022/05/16 05:33:51;;;;;;;11.82;6.55;;;;;;;14.12;100.00;164257.03;4991489;28;20102;-54
2022/05/16 05:36:17;;;;;;;12.45;6.47;;;;;;;14.42;100.00;164335.50;4989766;28;20118;-54
2022/05/16 05:38:42;;;;;;;14.50;6.25;;;;;;;14.52;100.00;164362.59;4991394;28;20029;-54
2022/05/16 05:41:09;;;;;;;15.65;6.40;;;;;;;14.67;100.00;164400.50;4990159;28;20038;-54
2022/05/16 05:43:35;;;;;;;21.33;7.10;;;;;;;14.76;100.00;164424.88;4990890;28;20034;-54
2022/05/16 05:46:03;;;;;;;18.80;5.60;;;;;;;14.93;100.00;164468.19;4989819;28;20045;-54
2022/05/16 05:48:29;;;;;;;12.40;6.22;;;;;;;15.06;100.00;164503.38;4990983;28;20073;-54
2022/05/16 05:50:54;;;;;;;17.27;5.22;;;;;;;15.19;100.00;164538.56;4989425;28;20437;-54
2022/05/16 05:53:20;;;;;;;12.60;6.03;;;;;;;15.32;100.00;164571.03;4991471;28;20038;-54
2022/05/16 05:55:47;;;;;;;11.55;6.20;;;;;;;15.47;100.00;164611.66;4989844;28;20049;-54
2022/05/16 05:58:16;;;;;;;14.15;5.90;;;;;;;15.59;100.00;164641.47;4991062;28;20050;-54
2022/05/16 06:00:42;;;;;;;18.20;6.38;;;;;;;15.74;100.00;164680.69;4989794;28;20125;-54
2022/05/16 06:03:07;;;;;;;10.95;5.63;;;;;;;15.84;100.00;164707.84;4991510;28;20062;-54
2022/05/16 06:05:33;;;;;;;23.27;6.95;;;;;;;15.95;100.00;164736.28;4989231;28;20046;-54
2022/05/16 06:07:58;;;;;;;13.02;6.18;;;;;;;16.13;100.00;164783.66;4989934;28;20090;-54
2022/05/16 06:10:24;;;;;;;15.80;7.05;;;;;;;16.11;100.00;164779.63;4989873;28;20026;-54
2022/05/16 06:12:50;;;;;;;8.75;5.30;;;;;;;16.40;100.00;164854.06;4990602;28;20528;-54
2022/05/16 06:15:15;;;;;;;24.13;6.78;;;;;;;16.54;100.00;164892.00;4989780;28;20026;-54
2022/05/16 06:17:41;;;;;;;15.05;7.53;;;;;;;16.68;100.00;164928.59;4990939;28;20498;-54
2022/05/16 06:20:08;;;;;;;9.73;5.13;;;;;;;16.83;100.00;164967.84;4990898;28;20026;-54
2022/05/16 06:22:34;;;;;;;18.45;6.32;;;;;;;17.03;100.00;165020.75;4989428;28;20571;-54
2022/05/16 06:25:31;;;;;;;15.73;5.70;;;;;;;17.26;100.00;165080.38;4991590;28;20030;-54
2022/05/16 06:28:08;;;;;;;11.95;5.13;;;;;;;17.48;100.00;165137.28;4992714;28;20545;-54
2022/05/16 06:30:36;;;;;;;6.75;4.80;;;;;;;17.70;100.00;165196.94;4992858;28;20053;-55
2022/05/16 06:33:02;;;;;;;16.40;5.10;;;;;;;17.95;100.00;165262.06;4994647;28;20023;-55
2022/05/16 06:35:27;;;;;;;11.25;5.65;;;;;;;18.28;100.00;165348.81;4992810;28;20022;-55
2022/05/16 06:37:53;;;;;;;20.40;4.32;;;;;;;18.80;100.00;165485.81;4994266;28;20022;-54
2022/05/16 06:40:20;;;;;;;9.48;4.43;;;;;;;19.59;100.00;165692.03;4992984;28;20033;-55
2022/05/16 06:42:46;;;;;;;13.20;4.03;;;;;;;20.58;100.00;165954.06;4993914;28;20022;-55
2022/05/16 06:45:13;;;;;;;11.68;4.35;;;;;;;21.49;100.00;166193.06;4993624;28;20032;-55
2022/05/16 06:47:38;;;;;;;20.77;4.93;;;;;;;21.87;100.00;166293.63;4994078;28;20347;-55
2022/05/16 06:50:04;;;;;;;10.95;4.03;;;;;;;22.11;100.00;166356.13;4993879;28;20033;-55
2022/05/16 06:52:30;;;;;;;12.95;4.70;;;;;;;22.33;100.00;166413.19;4992901;28;20070;-55
2022/05/16 06:54:55;;;;;;;7.38;4.15;;;;;;;22.17;100.00;166372.44;4994097;28;20027;-55
2022/05/16 06:57:21;;;;;;;14.18;4.30;;;;;;;22.12;100.00;166358.84;4992273;28;20512;-54
2022/05/16 06:59:46;;;;;;;10.73;4.63;;;;;;;21.87;100.00;166293.63;4994061;28;20392;-55
2022/05/16 07:02:11;;;;;;;8.43;3.58;;;;;;;21.51;100.00;166198.50;4992577;28;20096;-55
2022/05/16 07:04:40;;;;;;;8.57;4.55;;;;;;;21.25;100.00;166129.25;4993248;28;20054;-55
2022/05/16 07:07:08;;;;;;;12.95;4.35;;;;;;;21.21;100.00;166118.41;4992638;28;20096;-55
2022/05/16 07:09:34;;;;;;;10.18;4.55;;;;;;;21.28;100.00;166136.03;4993777;28;20492;-55
2022/05/16 07:11:59;;;;;;;17.35;5.72;;;;;;;21.26;100.00;166130.63;4992170;28;20042;-54
2022/05/16 07:14:25;;;;;;;16.00;4.55;;;;;;;21.22;100.00;166122.47;4993936;28;20073;-55
2022/05/16 07:16:51;;;;;;;13.32;5.78;;;;;;;21.16;100.00;166106.16;4991999;28;20038;-55
2022/05/16 07:19:16;;;;;;;10.48;4.95;;;;;;;21.14;100.00;166099.38;4993433;28;20050;-55
2022/05/16 07:21:42;;;;;;;9.30;4.13;;;;;;;21.02;100.00;166068.16;4992065;28;20540;-55
2022/05/16 07:24:08;;;;;;;17.13;5.32;;;;;;;20.95;100.00;166049.16;4993628;28;20030;-55
2022/05/16 07:29:18;;;;;;;11.27;4.45;;;;;;;20.94;100.00;166046.44;4993993;28;20081;-55
2022/05/16 07:31:43;;;;;;;13.05;5.22;;;;;;;21.09;100.00;166087.16;4991980;28;20038;-55
2022/05/16 07:34:08;;;;;;;7.25;4.18;;;;;;;21.28;100.00;166136.03;4993099;28;20018;-54
2022/05/16 07:36:34;;;;;;;15.23;4.45;;;;;;;21.53;100.00;166203.94;4991145;28;20097;-55
2022/05/16 07:38:59;;;;;;;14.13;3.60;;;;;;;21.85;100.00;166288.25;4993456;28;20045;-55
2022/05/16 07:41:24;;;;;;;18.95;6.75;;;;;;;22.06;100.00;166342.56;4991682;28;20042;-55
2022/05/16 07:43:50;;;;;;;8.00;4.05;;;;;;;22.29;100.00;166402.34;4993021;28;20022;-55
2022/05/16 07:46:15;;;;;;;11.13;3.85;;;;;;;22.46;100.00;166448.56;4991902;28;20034;-55
2022/05/16 07:48:42;;;;;;;10.70;4.50;;;;;;;22.64;100.00;166494.78;4991349;28;20037;-55
2022/05/16 07:51:08;;;;;;;7.32;4.10;;;;;;;22.74;100.00;166520.59;4991760;28;20088;-55
2022/05/16 07:53:33;;;;;;;12.52;3.45;;;;;;;23.16;100.00;166630.69;4992825;28;20019;-55
2022/05/16 07:55:59;;;;;;;6.40;3.10;;;;;;;23.36;100.00;166685.13;4991393;28;20046;-55
2022/05/16 07:58:26;;;;;;;14.65;4.20;;;;;;;23.40;100.00;166696.00;4992847;28;20022;-55
2022/05/16 08:00:52;;;;;;;6.30;3.03;;;;;;;23.51;100.00;166723.19;4991275;28;20062;-55
2022/05/16 08:03:20;;;;;;;11.13;4.38;;;;;;;23.75;100.00;166788.44;4992677;28;20590;-55
2022/05/16 08:05:46;;;;;;;19.40;4.55;;;;;;;24.06;100.00;166870.09;4990981;28;20138;-55
2022/05/16 08:10:58;;;;;;;16.73;4.38;;;;;;;24.90;100.00;167089.13;4991237;28;20061;-55
2022/05/16 08:13:24;;;;;;;15.27;3.40;;;;;;;24.94;98.80;167101.38;4992603;28;20026;-55
2022/05/16 08:15:50;;;;;;;13.25;3.67;;;;;;;25.31;96.49;167199.34;4991083;28;20537;-55
2022/05/16 08:18:16;;;;;;;12.20;4.20;;;;;;;25.68;95.49;167294.66;4992375;28;20030;-55
2022/05/16 08:20:43;;;;;;;6.05;3.47;;;;;;;25.87;92.58;167346.41;4989734;28;20474;-55
2022/05/16 08:23:14;;;;;;;11.65;3.58;;;;;;;25.31;92.15;167198.00;4991342;28;20433;-55
2022/05/16 08:25:40;;;;;;;7.05;2.80;;;;;;;24.68;91.69;167033.38;4990481;28;20069;-55
2022/05/16 08:28:09;;;;;;;11.23;3.47;;;;;;;24.21;92.17;166908.19;4992484;28;20438;-55
2022/05/16 08:30:35;;;;;;;15.27;4.00;;;;;;;24.11;92.92;166880.97;4990783;28;20121;-56
2022/05/16 08:33:01;;;;;;;9.55;3.97;;;;;;;24.16;94.14;166894.59;4992200;28;20386;-55
2022/05/16 08:35:28;;;;;;;11.07;3.67;;;;;;;24.10;95.78;166878.22;4990866;28;20050;-55
2022/05/16 08:41:05;;;;;;;10.52;3.20;;;;;;;24.49;94.27;166981.59;4990612;28;20040;-55
2022/05/16 08:43:47;;;;;;;13.00;4.60;;;;;;;24.43;95.26;166965.31;4989510;28;20050;-55
2022/05/16 08:46:36;;;;;;;9.70;3.10;;;;;;;24.65;92.81;167025.16;4990918;28;20034;-55
2022/05/16 08:49:13;;;;;;;10.23;3.40;;;;;;;24.65;92.80;167025.16;4991153;28;20667;-55
2022/05/16 08:51:41;;;;;;;6.90;3.33;;;;;;;24.55;93.87;166997.94;4989109;28;20505;-55
2022/05/16 08:54:29;;;;;;;12.25;5.07;;;;;;;24.86;91.62;167081.00;4992126;28;20026;-55
2022/05/16 08:56:58;;;;;;;10.38;3.08;;;;;;;24.80;92.64;167064.63;4989878;28;20042;-56
2022/05/16 08:59:26;;;;;;;12.68;4.07;;;;;;;24.70;90.64;167038.78;4992053;28;20083;-56
2022/05/16 09:01:59;;;;;;;6.20;3.22;;;;;;;24.45;91.94;166970.75;4990277;28;20049;-55
2022/05/16 09:04:51;;;;;;;6.28;3.35;;;;;;;24.12;93.72;166885.06;4972023;28;20118;-55
2022/05/16 09:07:31;;;;;;;8.48;4.28;;;;;;;24.20;96.62;166905.44;4987130;28;20034;-55
2022/05/16 09:10:13;;;;;;;12.27;4.18;;;;;;;24.20;92.97;166905.44;4990158;28;20022;-53
2022/05/16 09:13:08;;;;;;;8.20;3.63;;;;;;;23.98;95.43;166848.34;4990178;28;20506;-55
2022/05/16 09:16:04;;;;;;;12.80;4.05;;;;;;;23.79;98.11;166797.97;4989593;28;20069;-54
2022/05/16 09:18:41;;;;;;;15.38;4.88;;;;;;;23.86;97.71;166815.66;4991072;28;20030;-54
2022/05/16 09:21:12;;;;;;;13.73;3.93;;;;;;;23.84;98.72;166810.22;4990370;28;20637;-55
2022/05/16 09:24:01;;;;;;;7.15;3.25;;;;;;;23.86;98.46;166817.00;4991347;28;20018;-55
2022/05/16 09:26:35;;;;;;;13.40;3.97;;;;;;;23.84;98.74;166810.22;4986744;28;20587;-55
2022/05/16 09:29:31;;;;;;;9.57;3.72;;;;;;;23.81;100.00;166802.03;4991742;28;20038;-54
2022/05/16 09:32:04;;;;;;;13.48;4.63;;;;;;;23.73;100.00;166783.00;4989964;28;20038;-55
2022/05/16 09:34:30;;;;;;;8.43;4.15;;;;;;;23.65;100.00;166761.25;4991640;28;20019;-55
2022/05/16 09:36:55;;;;;;;11.98;3.60;;;;;;;23.73;100.00;166783.00;4989626;28;20418;-55
2022/05/16 09:39:24;;;;;;;11.88;5.18;;;;;;;23.74;100.00;166785.72;4989506;28;20026;-55
2022/05/16 09:42:02;;;;;;;9.07;3.92;;;;;;;23.37;100.00;166687.84;4989661;28;20053;-54
2022/05/16 09:44:45;;;;;;;7.53;2.97;;;;;;;23.48;100.00;166716.38;4991452;28;20022;-55
2022/05/16 09:47:34;;;;;;;8.77;4.00;;;;;;;23.32;100.00;166672.88;4989718;28;20532;-55
2022/05/16 09:50:02;;;;;;;11.60;4.43;;;;;;;23.23;100.00;166649.78;4991446;28;20031;-55
2022/05/16 09:52:28;;;;;;;;;;;;;;;23.23;100.00;166651.13;4990510;28;20475;-55
2022/05/16 09:55:04;;;;;;;6.53;3.35;;;;;;;23.09;100.00;166614.38;4990799;28;19909;-55
2022/05/16 09:57:37;;;;;;;9.98;3.25;;;;;;;23.23;100.00;166649.78;4989896;28;20054;-55
2022/05/16 10:00:24;;;;;;;22.15;3.65;;;;;;;23.30;100.00;166668.81;4993633;28;20031;-54
2022/05/16 10:03:29;;;;;;;14.02;4.55;;;;;;;23.36;100.00;166683.78;4993054;28;20038;-54
2022/05/16 10:05:57;;;;;;;7.30;3.72;;;;;;;23.33;100.00;166675.59;4993377;28;20038;-55
2022/05/16 10:08:30;;;;;;;5.65;3.97;;;;;;;23.46;100.00;166710.94;4994433;28;20052;-55
2022/05/16 10:10:58;;;;;;;9.07;3.80;;;;;;;23.40;100.00;166696.00;4981177;28;20778;-54
2022/05/16 10:13:24;;;;;;;16.63;4.53;;;;;;;23.48;100.00;166716.38;4975461;28;20106;-54
2022/05/16 10:15:53;;;;;;;11.82;3.22;;;;;;;23.35;100.00;166682.38;4985078;28;20050;-55
2022/05/16 10:18:21;;;;;;;12.05;4.78;;;;;;;23.25;100.00;166655.22;4976094;28;20023;-55
2022/05/16 10:20:51;;;;;;;20.63;5.07;;;;;;;23.21;100.00;166644.31;4977534;28;20094;-54
2022/05/16 10:23:25;;;;;;;19.40;3.55;;;;;;;23.32;100.00;166674.25;4988655;28;20046;-55
2022/05/16 10:25:55;;;;;;;7.40;3.65;;;;;;;23.37;100.00;166686.50;4992103;28;20159;-55
2022/05/16 10:28:38;;;;;;;28.63;3.92;;;;;;;23.39;100.00;166693.28;4975262;28;20027;-55
2022/05/16 10:34:12;;;;;;;19.20;3.50;;;;;;;23.56;100.00;166736.81;5005121;28;20053;-55
2022/05/16 10:36:38;;;;;;;13.05;3.75;;;;;;;23.70;100.00;166774.88;4992536;28;20038;-55
2022/05/16 10:39:13;;;;;;;25.25;4.55;;;;;;;23.82;100.00;166804.75;4994211;28;20026;-55
2022/05/16 10:41:55;;;;;;;8.15;3.05;;;;;;;23.86;100.00;166817.00;4992866;28;20046;-55
2022/05/16 10:44:31;;;;;;;15.10;4.63;;;;;;;23.97;100.00;166845.63;4994400;28;20034;-55
2022/05/16 10:47:36;;;;;;;9.90;3.65;;;;;;;24.11;100.00;166880.97;4992524;28;20038;-55
2022/05/16 10:50:04;;;;;;;10.57;3.42;;;;;;;24.26;100.00;166920.44;4993896;28;20050;-55
2022/05/16 10:52:44;;;;;;;8.85;4.60;;;;;;;24.38;100.00;166953.06;4992856;28;20042;-55
2022/05/16 10:55:10;;;;;;;9.20;3.35;;;;;;;24.62;100.00;167015.63;4993951;28;20038;-55
2022/05/16 10:57:53;;;;;;;10.73;4.15;;;;;;;24.97;100.00;167109.56;4992379;28;20046;-55
2022/05/16 11:00:22;;;;;;;11.35;5.38;;;;;;;25.14;100.00;167154.44;4991353;28;20485;-55
2022/05/16 11:03:17;;;;;;;10.43;4.32;;;;;;;25.30;100.00;167195.28;4993673;28;20030;-55
2022/05/16 11:05:49;;;;;;;8.88;3.75;;;;;;;25.38;100.00;167217.09;4992130;28;20050;-55
2022/05/16 11:08:27;;;;;;;11.90;3.70;;;;;;;25.65;100.00;167287.84;4993712;28;20049;-55
2022/05/16 11:10:58;;;;;;;11.75;4.50;;;;;;;25.86;100.00;167343.66;4991738;28;20039;-55
2022/05/16 11:13:42;;;;;;;11.13;3.58;;;;;;;25.80;100.00;167327.34;4993993;28;20030;-55
2022/05/16 11:16:15;;;;;;;9.23;3.75;;;;;;;25.87;100.00;167346.41;4992239;28;20125;-55
2022/05/16 11:19:07;;;;;;;8.85;3.47;;;;;;;25.81;100.00;167330.03;4993602;28;20058;-55
2022/05/16 11:22:04;;;;;;;8.73;3.28;;;;;;;26.06;100.00;167396.72;4991988;28;20038;-55
2022/05/16 11:24:52;;;;;;;4.87;2.80;;;;;;;25.98;100.00;167376.31;4993308;28;20022;-55
2022/05/16 11:27:42;;;;;;;5.80;3.58;;;;;;;25.96;100.00;167370.84;4992267;28;20034;-55
2022/05/16 11:30:10;;;;;;;7.80;3.00;;;;;;;26.10;100.00;167406.34;4993748;28;20030;-55
2022/05/16 11:32:44;;;;;;;;;;;;;;;26.10;100.00;167406.34;4992085;28;20056;-55
2022/05/16 11:35:23;;;;;;;6.07;3.13;;;;;;;26.05;100.00;167392.63;4993347;28;19920;-55
2022/05/16 11:38:08;;;;;;;5.80;3.47;;;;;;;26.02;100.00;167384.50;4991637;28;20408;-54
2022/05/16 11:40:52;;;;;;;6.63;3.10;;;;;;;25.81;100.00;167330.03;4991831;28;20093;-55
2022/05/16 11:43:32;;;;;;;12.35;3.05;;;;;;;25.32;100.00;167202.06;4993357;28;20028;-55
2022/05/16 11:46:18;;;;;;;14.30;3.53;;;;;;;25.26;100.00;167185.75;4991421;28;20062;-54
2022/05/16 11:49:02;;;;;;;4.90;2.95;;;;;;;25.18;100.00;167163.97;4993085;28;20077;-55
2022/05/16 11:51:33;;;;;;;16.00;4.50;;;;;;;25.25;100.00;167181.63;4988555;28;20047;-54